createdAt,value
2018-02-08T00:01:18.863Z,101.73
2018-02-08T00:06:21.694Z,90.57
2018-02-08T00:11:25.207Z,90.63
2018-02-08T00:16:28.739Z,99.27
2018-02-08T00:21:32.495Z,103.27
2018-02-08T00:26:35.269Z,86.70
2018-02-08T00:31:38.295Z,82.00
2018-02-08T00:36:41.301Z,85.60
2018-02-08T00:41:44.879Z,87.43
2018-02-08T00:46:47.832Z,94.70
2018-02-08T00:51:50.749Z,107.23
2018-02-08T00:56:54.447Z,93.97
2018-02-08T01:01:57.984Z,83.87
2018-02-08T01:07:00.701Z,112.30
2018-02-08T01:12:03.554Z,96.63
2018-02-08T01:17:07.898Z,101.47
2018-02-08T01:22:10.608Z,81.70
2018-02-08T01:27:13.345Z,107.30
2018-02-08T01:32:15.999Z,92.17
2018-02-08T01:37:18.779Z,101.47
2018-02-08T01:42:22.249Z,77.17
2018-02-08T01:47:24.952Z,89.57
2018-02-08T01:52:27.717Z,62.00
2018-02-08T01:57:30.392Z,83.87
2018-02-08T02:02:34.611Z,97.23
2018-02-08T02:07:37.614Z,81.97
2018-02-08T02:12:40.646Z,101.83
2018-02-08T02:17:43.299Z,83.00
2018-02-08T02:22:46.461Z,105.27
2018-02-08T02:27:49.191Z,98.30
2018-02-08T02:32:52.626Z,99.80
2018-02-08T02:37:55.372Z,81.33
2018-02-08T02:42:58.182Z,98.83
2018-02-08T02:48:00.881Z,89.63
2018-02-08T02:53:04.086Z,90.10
2018-02-08T02:58:07.537Z,94.40
2018-02-08T03:03:10.322Z,77.27
2018-02-08T03:08:13.446Z,86.07
2018-02-08T03:13:16.146Z,105.07
2018-02-08T03:18:18.920Z,85.13
2018-02-08T03:23:21.568Z,85.73
2018-02-08T03:28:25.356Z,88.10
2018-02-08T03:33:28.885Z,77.73
2018-02-08T03:38:31.614Z,94.00
2018-02-08T03:43:34.452Z,86.47
2018-02-08T03:48:37.997Z,83.97
2018-02-08T03:53:41.292Z,86.87
2018-02-08T03:58:44.067Z,86.97
2018-02-08T04:03:46.978Z,112.60
2018-02-08T04:08:49.723Z,96.17
2018-02-08T04:13:52.689Z,95.07
2018-02-08T04:18:55.401Z,97.63
2018-02-08T04:23:58.035Z,98.03
2018-02-08T04:29:00.691Z,101.33
2018-02-08T04:34:03.959Z,79.17
2018-02-08T04:39:18.611Z,93.30
2018-02-08T04:44:33.304Z,94.53
2018-02-08T04:49:36.830Z,97.70
2018-02-08T04:54:39.687Z,102.33
2018-02-08T04:59:42.433Z,84.17
2018-02-08T05:04:45.182Z,95.97
2018-02-08T05:09:47.941Z,114.93
2018-02-08T05:14:50.723Z,77.53
2018-02-08T05:19:53.457Z,111.13
2018-02-08T05:24:57.231Z,100.73
2018-02-08T05:30:00.865Z,125.83
2018-02-08T05:35:03.853Z,102.53
2018-02-08T05:40:06.580Z,98.33
2018-02-08T05:45:09.455Z,100.37
2018-02-08T05:50:12.942Z,116.40
2018-02-08T05:55:17.431Z,106.60
2018-02-08T06:05:37.693Z,114.80
2018-02-08T06:22:29.805Z,99.90
2018-02-08T06:27:40.830Z,112.37
2018-02-08T07:07:55.260Z,122.93
2018-02-08T07:13:32.958Z,93.73
2018-02-08T07:31:20.217Z,105.63
2018-02-08T09:48:59.362Z,119.10
2018-02-08T10:15:12.689Z,110.00
2018-02-08T10:51:22.979Z,90.60
2018-02-08T10:56:46.259Z,103.97
2018-02-08T11:08:22.111Z,87.60
2018-02-08T11:19:02.523Z,98.53
2018-02-08T12:14:52.623Z,91.03
2018-02-08T12:20:23.052Z,88.07
2018-02-08T12:25:55.052Z,92.43
2018-02-08T12:30:59.693Z,101.83
2018-02-08T12:36:06.948Z,98.63
2018-02-08T12:41:12.839Z,79.07
2018-02-08T12:46:16.442Z,73.93
2018-02-08T12:51:20.164Z,67.57
2018-02-08T12:56:27.866Z,81.30
2018-02-08T13:01:32.060Z,64.93
2018-02-08T13:06:35.078Z,53.03
2018-02-08T13:11:38.098Z,64.27
2018-02-08T13:16:45.214Z,65.73
2018-02-08T13:21:50.570Z,61.60
2018-02-08T13:26:54.836Z,59.63
2018-02-08T13:32:00.275Z,73.57
2018-02-08T13:37:03.669Z,62.13
2018-02-08T13:42:27.462Z,78.60
2018-02-08T13:53:19.468Z,92.57
2018-02-08T14:05:06.255Z,69.70
2018-02-08T14:43:51.497Z,74.80
2018-02-08T15:56:58.742Z,77.73
2018-02-08T16:02:05.032Z,67.77
2018-02-08T16:07:08.309Z,67.27
2018-02-08T16:12:11.859Z,68.23
2018-02-08T16:17:15.517Z,65.87
2018-02-08T16:22:20.146Z,79.73
2018-02-08T16:27:23.141Z,72.13
2018-02-08T16:32:26.957Z,59.53
2018-02-08T16:37:30.394Z,92.17
2018-02-08T16:42:33.459Z,64.47
2018-02-08T16:47:40.253Z,60.90
2018-02-08T16:52:43.521Z,68.40
2018-02-08T16:57:47.309Z,64.80
2018-02-08T17:02:52.685Z,61.30
2018-02-08T17:07:55.537Z,66.17
2018-02-08T17:13:13.447Z,58.87
2018-02-08T17:18:16.654Z,70.73
2018-02-08T17:23:19.863Z,77.70
2018-02-08T17:33:20.683Z,78.70
2018-02-08T17:38:30.515Z,77.13
2018-02-08T17:43:36.838Z,71.10
2018-02-08T17:48:39.982Z,64.37
2018-02-08T17:53:44.122Z,84.30
2018-02-08T17:58:47.182Z,78.60
2018-02-08T18:03:52.675Z,71.67
2018-02-08T18:08:55.753Z,67.80
2018-02-08T18:13:59.703Z,62.80
2018-02-08T18:19:02.779Z,62.30
2018-02-08T18:24:06.870Z,63.57
2018-02-08T18:29:09.685Z,71.97
2018-02-08T18:34:17.248Z,61.93
2018-02-08T18:39:22.589Z,82.47
2018-02-08T18:44:26.641Z,58.33
2018-02-08T18:49:34.189Z,59.17
2018-02-08T18:54:54.658Z,74.63
2018-02-08T19:00:01.013Z,67.33
2018-02-08T19:05:07.057Z,72.77
2018-02-08T19:10:13.329Z,72.83
2018-02-08T19:15:17.445Z,62.27
2018-02-08T19:20:22.177Z,83.80
2018-02-08T19:25:27.069Z,61.13
2018-02-08T19:30:36.955Z,67.10
2018-02-08T19:35:44.034Z,76.90
2018-02-08T19:40:48.055Z,76.07
2018-02-08T19:45:56.075Z,77.60
2018-02-08T19:56:28.313Z,72.70
2018-02-08T20:01:40.003Z,69.90
2018-02-08T20:06:49.084Z,71.90
2018-02-08T20:11:54.047Z,71.03
2018-02-08T20:17:05.588Z,75.33
2018-02-08T20:22:16.749Z,74.97
2018-02-08T20:32:43.037Z,71.30
2018-02-08T20:37:47.318Z,72.20
2018-02-08T20:48:20.572Z,68.70
2018-02-08T20:53:26.371Z,69.00
2018-02-08T20:58:29.965Z,75.07
2018-02-08T21:03:34.441Z,59.37
2018-02-08T21:08:40.403Z,62.57
2018-02-08T21:13:45.305Z,63.73
2018-02-08T21:18:48.304Z,65.20
2018-02-08T21:23:52.832Z,76.33
2018-02-08T21:28:56.977Z,71.53
2018-02-08T21:34:09.963Z,69.27
2018-02-08T21:39:14.689Z,67.90
2018-02-08T21:44:28.831Z,69.13
2018-02-08T21:49:34.898Z,59.90
2018-02-08T21:54:43.534Z,76.87
2018-02-08T21:59:54.242Z,70.33
2018-02-08T22:05:03.637Z,80.43
2018-02-08T22:10:11.150Z,64.70
2018-02-08T22:21:07.642Z,76.30
2018-02-08T22:26:17.625Z,72.77
2018-02-08T22:31:31.203Z,69.30
2018-02-08T22:36:43.211Z,78.60
2018-02-08T22:41:57.714Z,71.83
2018-02-08T22:47:07.164Z,72.23
2018-02-08T22:52:17.782Z,67.83
2018-02-08T22:57:25.229Z,65.07
2018-02-08T23:02:30.879Z,67.43
2018-02-08T23:07:49.730Z,74.70
2018-02-08T23:12:54.083Z,60.43
2018-02-08T23:23:21.328Z,69.50
2018-02-08T23:28:33.905Z,61.40
2018-02-08T23:33:38.791Z,70.80
2018-02-08T23:38:52.085Z,58.87
2018-02-08T23:44:16.522Z,63.57
2018-02-08T23:49:25.832Z,85.07
2018-02-08T23:54:42.710Z,68.73
2018-02-08T23:59:50.355Z,62.63
